sensor_id;sensor_type;location;lat;lon;timestamp;temperature;humidity
30304;DHT22;17112;48.636;10.152;2023-05-10T00:01:04;17.40;70.50
30304;DHT22;17112;48.636;10.152;2023-05-10T00:03:30;17.40;70.60
30304;DHT22;17112;48.636;10.152;2023-05-10T00:05:56;17.40;70.60
30304;DHT22;17112;48.636;10.152;2023-05-10T00:08:22;17.40;70.50
30304;DHT22;17112;48.636;10.152;2023-05-10T00:10:48;17.40;70.30
30304;DHT22;17112;48.636;10.152;2023-05-10T00:13:14;17.40;70.40
30304;DHT22;17112;48.636;10.152;2023-05-10T00:15:40;17.40;70.60
30304;DHT22;17112;48.636;10.152;2023-05-10T00:18:05;17.40;70.60
30304;DHT22;17112;48.636;10.152;2023-05-10T00:20:31;17.40;70.60
30304;DHT22;17112;48.636;10.152;2023-05-10T00:22:57;17.40;70.60
30304;DHT22;17112;48.636;10.152;2023-05-10T00:25:22;17.40;70.60
30304;DHT22;17112;48.636;10.152;2023-05-10T00:27:48;17.40;70.70
30304;DHT22;17112;48.636;10.152;2023-05-10T00:30:15;17.40;70.70
30304;DHT22;17112;48.636;10.152;2023-05-10T00:32:40;17.40;70.70
30304;DHT22;17112;48.636;10.152;2023-05-10T00:35:06;17.40;70.80
30304;DHT22;17112;48.636;10.152;2023-05-10T00:37:33;17.40;70.70
30304;DHT22;17112;48.636;10.152;2023-05-10T00:39:58;17.40;70.80
30304;DHT22;17112;48.636;10.152;2023-05-10T00:42:24;17.40;70.90
30304;DHT22;17112;48.636;10.152;2023-05-10T00:44:49;17.40;70.90
30304;DHT22;17112;48.636;10.152;2023-05-10T00:47:17;17.40;70.80
30304;DHT22;17112;48.636;10.152;2023-05-10T00:49:43;17.30;70.90
30304;DHT22;17112;48.636;10.152;2023-05-10T00:52:09;17.40;70.90
30304;DHT22;17112;48.636;10.152;2023-05-10T00:54:35;17.30;70.80
30304;DHT22;17112;48.636;10.152;2023-05-10T00:57:01;17.30;70.90
30304;DHT22;17112;48.636;10.152;2023-05-10T00:59:28;17.30;70.80
30304;DHT22;17112;48.636;10.152;2023-05-10T01:01:54;17.30;70.90
30304;DHT22;17112;48.636;10.152;2023-05-10T01:04:19;17.30;70.80
30304;DHT22;17112;48.636;10.152;2023-05-10T01:06:51;17.30;70.80
30304;DHT22;17112;48.636;10.152;2023-05-10T01:09:17;17.20;70.90
30304;DHT22;17112;48.636;10.152;2023-05-10T01:11:43;17.20;70.80
30304;DHT22;17112;48.636;10.152;2023-05-10T01:14:09;17.20;70.70
30304;DHT22;17112;48.636;10.152;2023-05-10T01:16:40;17.20;70.80
30304;DHT22;17112;48.636;10.152;2023-05-10T01:19:25;17.20;71.10
30304;DHT22;17112;48.636;10.152;2023-05-10T01:41:17;16.90;70.90
30304;DHT22;17112;48.636;10.152;2023-05-10T01:46:36;16.90;70.80
30304;DHT22;17112;48.636;10.152;2023-05-10T01:49:07;16.90;70.60
30304;DHT22;17112;48.636;10.152;2023-05-10T01:51:44;16.90;70.20
30304;DHT22;17112;48.636;10.152;2023-05-10T01:54:13;16.90;70.60
30304;DHT22;17112;48.636;10.152;2023-05-10T01:56:40;16.80;69.90
30304;DHT22;17112;48.636;10.152;2023-05-10T01:59:12;16.80;70.10
30304;DHT22;17112;48.636;10.152;2023-05-10T02:01:40;16.80;70.50
30304;DHT22;17112;48.636;10.152;2023-05-10T02:04:07;16.80;69.80
30304;DHT22;17112;48.636;10.152;2023-05-10T02:06:34;16.70;69.70
30304;DHT22;17112;48.636;10.152;2023-05-10T02:09:01;16.70;69.60
30304;DHT22;17112;48.636;10.152;2023-05-10T02:11:28;16.60;69.50
30304;DHT22;17112;48.636;10.152;2023-05-10T02:13:55;16.50;69.50
30304;DHT22;17112;48.636;10.152;2023-05-10T02:16:24;16.50;69.70
30304;DHT22;17112;48.636;10.152;2023-05-10T02:18:52;16.40;69.60
30304;DHT22;17112;48.636;10.152;2023-05-10T02:21:20;16.30;69.50
30304;DHT22;17112;48.636;10.152;2023-05-10T02:23:48;16.30;69.60
30304;DHT22;17112;48.636;10.152;2023-05-10T02:26:16;16.20;69.40
30304;DHT22;17112;48.636;10.152;2023-05-10T02:28:42;16.10;69.50
30304;DHT22;17112;48.636;10.152;2023-05-10T02:31:09;16.10;69.50
30304;DHT22;17112;48.636;10.152;2023-05-10T02:33:38;16.00;69.50
30304;DHT22;17112;48.636;10.152;2023-05-10T02:36:04;16.00;69.50
30304;DHT22;17112;48.636;10.152;2023-05-10T02:38:31;15.90;70.10
30304;DHT22;17112;48.636;10.152;2023-05-10T02:40:59;15.90;69.80
30304;DHT22;17112;48.636;10.152;2023-05-10T02:43:25;15.80;69.70
30304;DHT22;17112;48.636;10.152;2023-05-10T02:45:51;15.80;69.60
30304;DHT22;17112;48.636;10.152;2023-05-10T02:48:17;15.80;69.90
30304;DHT22;17112;48.636;10.152;2023-05-10T02:50:44;15.70;69.60
30304;DHT22;17112;48.636;10.152;2023-05-10T02:53:15;15.70;69.60
30304;DHT22;17112;48.636;10.152;2023-05-10T02:55:43;15.70;69.80
30304;DHT22;17112;48.636;10.152;2023-05-10T02:58:10;15.60;70.00
30304;DHT22;17112;48.636;10.152;2023-05-10T03:00:36;15.60;69.70
30304;DHT22;17112;48.636;10.152;2023-05-10T03:03:02;15.50;69.60
30304;DHT22;17112;48.636;10.152;2023-05-10T03:05:28;15.50;69.60
30304;DHT22;17112;48.636;10.152;2023-05-10T03:07:54;15.40;70.00
30304;DHT22;17112;48.636;10.152;2023-05-10T03:10:24;15.40;70.00
30304;DHT22;17112;48.636;10.152;2023-05-10T03:13:35;15.40;70.30
30304;DHT22;17112;48.636;10.152;2023-05-10T03:16:12;15.40;70.90
30304;DHT22;17112;48.636;10.152;2023-05-10T03:19:05;15.30;70.30
30304;DHT22;17112;48.636;10.152;2023-05-10T03:21:32;15.30;71.20
30304;DHT22;17112;48.636;10.152;2023-05-10T03:24:16;15.30;70.50
30304;DHT22;17112;48.636;10.152;2023-05-10T03:26:45;15.30;71.00
30304;DHT22;17112;48.636;10.152;2023-05-10T03:29:12;15.30;70.30
30304;DHT22;17112;48.636;10.152;2023-05-10T03:31:39;15.30;70.40
30304;DHT22;17112;48.636;10.152;2023-05-10T03:34:05;15.30;70.20
30304;DHT22;17112;48.636;10.152;2023-05-10T03:36:32;15.30;70.80
30304;DHT22;17112;48.636;10.152;2023-05-10T03:38:58;15.30;70.40
30304;DHT22;17112;48.636;10.152;2023-05-10T03:41:24;15.30;70.60
30304;DHT22;17112;48.636;10.152;2023-05-10T03:43:50;15.20;70.70
30304;DHT22;17112;48.636;10.152;2023-05-10T03:46:16;15.30;70.50
30304;DHT22;17112;48.636;10.152;2023-05-10T03:48:42;15.30;70.40
30304;DHT22;17112;48.636;10.152;2023-05-10T03:51:07;15.30;70.60
30304;DHT22;17112;48.636;10.152;2023-05-10T03:53:33;15.30;70.50
30304;DHT22;17112;48.636;10.152;2023-05-10T03:55:59;15.30;70.60
30304;DHT22;17112;48.636;10.152;2023-05-10T03:58:25;15.30;70.70
30304;DHT22;17112;48.636;10.152;2023-05-10T04:00:51;15.30;70.70
30304;DHT22;17112;48.636;10.152;2023-05-10T04:03:17;15.30;70.40
30304;DHT22;17112;48.636;10.152;2023-05-10T04:05:43;15.30;70.40
30304;DHT22;17112;48.636;10.152;2023-05-10T04:08:08;15.30;70.60
30304;DHT22;17112;48.636;10.152;2023-05-10T04:10:34;15.30;70.50
30304;DHT22;17112;48.636;10.152;2023-05-10T04:13:00;15.30;70.40
30304;DHT22;17112;48.636;10.152;2023-05-10T04:15:25;15.30;70.50
30304;DHT22;17112;48.636;10.152;2023-05-10T04:17:51;15.30;70.50
30304;DHT22;17112;48.636;10.152;2023-05-10T04:20:17;15.30;70.70
30304;DHT22;17112;48.636;10.152;2023-05-10T04:22:42;15.20;70.70
30304;DHT22;17112;48.636;10.152;2023-05-10T04:25:08;15.30;70.50
30304;DHT22;17112;48.636;10.152;2023-05-10T04:27:34;15.30;70.40
30304;DHT22;17112;48.636;10.152;2023-05-10T04:30:00;15.30;70.40
30304;DHT22;17112;48.636;10.152;2023-05-10T04:32:27;15.40;70.50
30304;DHT22;17112;48.636;10.152;2023-05-10T04:34:53;15.30;70.50
30304;DHT22;17112;48.636;10.152;2023-05-10T04:37:19;15.40;70.80
30304;DHT22;17112;48.636;10.152;2023-05-10T04:39:46;15.40;71.00
30304;DHT22;17112;48.636;10.152;2023-05-10T04:42:12;15.40;71.00
30304;DHT22;17112;48.636;10.152;2023-05-10T04:44:40;15.40;71.00
30304;DHT22;17112;48.636;10.152;2023-05-10T04:47:06;15.40;70.70
30304;DHT22;17112;48.636;10.152;2023-05-10T04:49:31;15.50;70.60
30304;DHT22;17112;48.636;10.152;2023-05-10T04:51:57;15.50;70.40
30304;DHT22;17112;48.636;10.152;2023-05-10T04:54:23;15.50;70.40
30304;DHT22;17112;48.636;10.152;2023-05-10T04:56:49;15.50;70.50
30304;DHT22;17112;48.636;10.152;2023-05-10T04:59:14;15.50;70.50
30304;DHT22;17112;48.636;10.152;2023-05-10T05:01:40;15.50;70.40
30304;DHT22;17112;48.636;10.152;2023-05-10T05:04:06;15.50;70.60
30304;DHT22;17112;48.636;10.152;2023-05-10T05:06:32;15.50;70.10
30304;DHT22;17112;48.636;10.152;2023-05-10T05:08:57;15.50;70.10
30304;DHT22;17112;48.636;10.152;2023-05-10T05:11:23;15.50;70.30
30304;DHT22;17112;48.636;10.152;2023-05-10T05:13:49;15.50;70.30
30304;DHT22;17112;48.636;10.152;2023-05-10T05:16:14;15.50;70.30
30304;DHT22;17112;48.636;10.152;2023-05-10T05:18:40;15.50;70.60
30304;DHT22;17112;48.636;10.152;2023-05-10T05:21:18;15.50;70.70
30304;DHT22;17112;48.636;10.152;2023-05-10T05:23:44;15.90;71.40
30304;DHT22;17112;48.636;10.152;2023-05-10T05:26:10;15.60;71.00
30304;DHT22;17112;48.636;10.152;2023-05-10T05:28:36;15.70;71.10
30304;DHT22;17112;48.636;10.152;2023-05-10T05:31:06;15.70;71.20
30304;DHT22;17112;48.636;10.152;2023-05-10T05:33:33;15.80;71.20
30304;DHT22;17112;48.636;10.152;2023-05-10T05:36:05;15.90;71.10
30304;DHT22;17112;48.636;10.152;2023-05-10T05:38:31;15.90;71.10
30304;DHT22;17112;48.636;10.152;2023-05-10T05:40:57;16.00;70.90
30304;DHT22;17112;48.636;10.152;2023-05-10T05:43:23;16.10;70.70
30304;DHT22;17112;48.636;10.152;2023-05-10T05:45:49;16.10;70.70
30304;DHT22;17112;48.636;10.152;2023-05-10T05:48:15;16.10;70.40
30304;DHT22;17112;48.636;10.152;2023-05-10T05:50:40;16.10;70.10
30304;DHT22;17112;48.636;10.152;2023-05-10T05:53:06;16.20;70.10
30304;DHT22;17112;48.636;10.152;2023-05-10T05:55:31;16.20;70.00
30304;DHT22;17112;48.636;10.152;2023-05-10T05:57:58;16.20;70.20
30304;DHT22;17112;48.636;10.152;2023-05-10T06:00:23;16.20;69.80
30304;DHT22;17112;48.636;10.152;2023-05-10T06:02:49;16.30;69.40
30304;DHT22;17112;48.636;10.152;2023-05-10T06:05:15;16.30;69.40
30304;DHT22;17112;48.636;10.152;2023-05-10T06:07:41;16.30;69.70
30304;DHT22;17112;48.636;10.152;2023-05-10T06:10:10;16.30;69.90
30304;DHT22;17112;48.636;10.152;2023-05-10T06:12:35;16.30;69.60
30304;DHT22;17112;48.636;10.152;2023-05-10T06:15:01;16.30;69.20
30304;DHT22;17112;48.636;10.152;2023-05-10T06:17:27;16.30;69.30
30304;DHT22;17112;48.636;10.152;2023-05-10T06:19:54;16.30;69.40
30304;DHT22;17112;48.636;10.152;2023-05-10T06:22:19;16.40;69.50
30304;DHT22;17112;48.636;10.152;2023-05-10T06:24:47;16.40;69.30
30304;DHT22;17112;48.636;10.152;2023-05-10T06:27:12;16.40;69.10
30304;DHT22;17112;48.636;10.152;2023-05-10T06:29:38;16.40;69.10
30304;DHT22;17112;48.636;10.152;2023-05-10T06:32:04;16.40;68.90
30304;DHT22;17112;48.636;10.152;2023-05-10T06:34:30;16.40;68.50
30304;DHT22;17112;48.636;10.152;2023-05-10T06:36:55;16.40;68.50
30304;DHT22;17112;48.636;10.152;2023-05-10T06:39:21;16.40;68.50
30304;DHT22;17112;48.636;10.152;2023-05-10T06:41:47;16.40;68.80
30304;DHT22;17112;48.636;10.152;2023-05-10T06:44:13;16.40;69.00
30304;DHT22;17112;48.636;10.152;2023-05-10T06:46:38;16.40;68.90
30304;DHT22;17112;48.636;10.152;2023-05-10T06:49:04;16.50;68.70
30304;DHT22;17112;48.636;10.152;2023-05-10T06:51:30;16.50;68.80
30304;DHT22;17112;48.636;10.152;2023-05-10T06:53:56;16.50;69.10
30304;DHT22;17112;48.636;10.152;2023-05-10T06:56:21;16.60;69.00
30304;DHT22;17112;48.636;10.152;2023-05-10T06:58:48;16.70;69.00
30304;DHT22;17112;48.636;10.152;2023-05-10T07:01:13;16.70;68.90
30304;DHT22;17112;48.636;10.152;2023-05-10T07:03:39;16.80;68.80
30304;DHT22;17112;48.636;10.152;2023-05-10T07:06:05;16.80;68.60
30304;DHT22;17112;48.636;10.152;2023-05-10T07:08:33;16.90;68.10
30304;DHT22;17112;48.636;10.152;2023-05-10T07:11:03;17.00;67.80
30304;DHT22;17112;48.636;10.152;2023-05-10T07:13:33;17.00;67.40
30304;DHT22;17112;48.636;10.152;2023-05-10T07:16:00;17.00;67.40
30304;DHT22;17112;48.636;10.152;2023-05-10T07:18:26;17.00;67.80
30304;DHT22;17112;48.636;10.152;2023-05-10T07:20:52;17.00;67.90
30304;DHT22;17112;48.636;10.152;2023-05-10T07:23:17;17.10;67.90
30304;DHT22;17112;48.636;10.152;2023-05-10T07:25:50;17.10;67.50
30304;DHT22;17112;48.636;10.152;2023-05-10T07:28:19;17.10;67.00
30304;DHT22;17112;48.636;10.152;2023-05-10T07:30:45;17.10;67.30
30304;DHT22;17112;48.636;10.152;2023-05-10T07:33:13;17.20;67.90
30304;DHT22;17112;48.636;10.152;2023-05-10T07:35:39;17.30;68.30
30304;DHT22;17112;48.636;10.152;2023-05-10T07:38:04;17.50;68.30
30304;DHT22;17112;48.636;10.152;2023-05-10T07:40:30;17.60;67.90
30304;DHT22;17112;48.636;10.152;2023-05-10T07:42:56;17.70;67.40
30304;DHT22;17112;48.636;10.152;2023-05-10T07:45:22;17.80;66.80
30304;DHT22;17112;48.636;10.152;2023-05-10T07:47:48;17.90;66.30
30304;DHT22;17112;48.636;10.152;2023-05-10T07:50:14;17.90;66.00
30304;DHT22;17112;48.636;10.152;2023-05-10T07:52:40;17.90;65.50
30304;DHT22;17112;48.636;10.152;2023-05-10T07:55:06;17.90;65.30
30304;DHT22;17112;48.636;10.152;2023-05-10T07:57:33;17.90;65.20
30304;DHT22;17112;48.636;10.152;2023-05-10T07:59:59;17.80;65.30
30304;DHT22;17112;48.636;10.152;2023-05-10T08:02:24;17.70;64.70
30304;DHT22;17112;48.636;10.152;2023-05-10T08:04:50;17.70;65.00
30304;DHT22;17112;48.636;10.152;2023-05-10T08:07:17;17.60;65.30
30304;DHT22;17112;48.636;10.152;2023-05-10T08:09:42;17.50;65.50
30304;DHT22;17112;48.636;10.152;2023-05-10T08:12:08;17.50;66.00
30304;DHT22;17112;48.636;10.152;2023-05-10T08:14:34;17.50;66.40
30304;DHT22;17112;48.636;10.152;2023-05-10T08:17:02;17.50;66.90
30304;DHT22;17112;48.636;10.152;2023-05-10T08:19:28;17.60;67.40
30304;DHT22;17112;48.636;10.152;2023-05-10T08:21:54;17.70;67.60
30304;DHT22;17112;48.636;10.152;2023-05-10T08:24:21;17.80;67.20
30304;DHT22;17112;48.636;10.152;2023-05-10T08:26:47;18.00;67.10
30304;DHT22;17112;48.636;10.152;2023-05-10T08:29:13;18.20;66.60
30304;DHT22;17112;48.636;10.152;2023-05-10T08:31:39;18.30;65.40
30304;DHT22;17112;48.636;10.152;2023-05-10T08:34:05;18.40;65.00
30304;DHT22;17112;48.636;10.152;2023-05-10T08:36:30;18.50;64.80
30304;DHT22;17112;48.636;10.152;2023-05-10T08:38:57;18.50;64.30
30304;DHT22;17112;48.636;10.152;2023-05-10T08:41:24;18.50;63.70
30304;DHT22;17112;48.636;10.152;2023-05-10T08:43:51;18.40;62.80
30304;DHT22;17112;48.636;10.152;2023-05-10T08:46:18;18.40;62.70
30304;DHT22;17112;48.636;10.152;2023-05-10T08:48:45;18.30;63.30
30304;DHT22;17112;48.636;10.152;2023-05-10T08:51:22;18.30;63.30
30304;DHT22;17112;48.636;10.152;2023-05-10T08:53:49;18.40;63.30
30304;DHT22;17112;48.636;10.152;2023-05-10T08:56:15;18.40;63.40
30304;DHT22;17112;48.636;10.152;2023-05-10T08:58:43;18.50;62.40
30304;DHT22;17112;48.636;10.152;2023-05-10T09:01:09;18.50;62.50
30304;DHT22;17112;48.636;10.152;2023-05-10T09:03:38;18.50;61.30
30304;DHT22;17112;48.636;10.152;2023-05-10T09:06:04;18.50;61.50
30304;DHT22;17112;48.636;10.152;2023-05-10T09:08:30;18.40;62.20
30304;DHT22;17112;48.636;10.152;2023-05-10T09:10:57;18.40;62.00
30304;DHT22;17112;48.636;10.152;2023-05-10T09:13:23;18.40;62.00
30304;DHT22;17112;48.636;10.152;2023-05-10T09:15:49;18.40;62.10
30304;DHT22;17112;48.636;10.152;2023-05-10T09:18:16;18.40;62.20
30304;DHT22;17112;48.636;10.152;2023-05-10T09:20:41;18.50;62.40
30304;DHT22;17112;48.636;10.152;2023-05-10T09:23:08;18.50;61.80
30304;DHT22;17112;48.636;10.152;2023-05-10T09:25:33;18.60;61.40
30304;DHT22;17112;48.636;10.152;2023-05-10T09:28:00;18.60;60.60
30304;DHT22;17112;48.636;10.152;2023-05-10T09:30:28;18.70;60.80
30304;DHT22;17112;48.636;10.152;2023-05-10T09:32:56;18.70;61.60
30304;DHT22;17112;48.636;10.152;2023-05-10T09:35:24;18.80;61.70
30304;DHT22;17112;48.636;10.152;2023-05-10T09:37:51;19.00;60.80
30304;DHT22;17112;48.636;10.152;2023-05-10T09:40:22;19.10;60.00
30304;DHT22;17112;48.636;10.152;2023-05-10T09:43:06;19.20;59.50
30304;DHT22;17112;48.636;10.152;2023-05-10T09:45:34;19.20;58.90
30304;DHT22;17112;48.636;10.152;2023-05-10T09:48:01;19.30;58.30
30304;DHT22;17112;48.636;10.152;2023-05-10T09:50:28;19.30;58.20
30304;DHT22;17112;48.636;10.152;2023-05-10T09:53:02;19.40;58.20
30304;DHT22;17112;48.636;10.152;2023-05-10T09:55:44;19.30;58.10
30304;DHT22;17112;48.636;10.152;2023-05-10T09:58:12;19.40;58.00
30304;DHT22;17112;48.636;10.152;2023-05-10T10:00:40;19.40;58.50
30304;DHT22;17112;48.636;10.152;2023-05-10T10:03:06;19.50;58.00
30304;DHT22;17112;48.636;10.152;2023-05-10T10:05:34;19.60;57.30
30304;DHT22;17112;48.636;10.152;2023-05-10T10:08:01;19.60;56.80
30304;DHT22;17112;48.636;10.152;2023-05-10T10:10:28;19.60;56.80
30304;DHT22;17112;48.636;10.152;2023-05-10T10:12:54;19.60;57.10
30304;DHT22;17112;48.636;10.152;2023-05-10T10:15:21;19.60;56.60
30304;DHT22;17112;48.636;10.152;2023-05-10T10:17:49;19.70;56.20
30304;DHT22;17112;48.636;10.152;2023-05-10T10:20:15;19.60;56.40
30304;DHT22;17112;48.636;10.152;2023-05-10T10:22:41;19.60;56.40
30304;DHT22;17112;48.636;10.152;2023-05-10T10:25:10;19.60;56.60
30304;DHT22;17112;48.636;10.152;2023-05-10T10:30:39;19.60;56.20
30304;DHT22;17112;48.636;10.152;2023-05-10T10:35:55;19.60;56.60
30304;DHT22;17112;48.636;10.152;2023-05-10T10:38:23;19.60;57.00
30304;DHT22;17112;48.636;10.152;2023-05-10T10:41:02;19.60;56.10
30304;DHT22;17112;48.636;10.152;2023-05-10T10:43:28;19.60;56.10
30304;DHT22;17112;48.636;10.152;2023-05-10T10:46:14;19.60;56.40
30304;DHT22;17112;48.636;10.152;2023-05-10T10:49:09;19.50;56.40
30304;DHT22;17112;48.636;10.152;2023-05-10T10:51:38;19.50;56.40
30304;DHT22;17112;48.636;10.152;2023-05-10T10:54:11;19.50;56.10
30304;DHT22;17112;48.636;10.152;2023-05-10T10:56:36;19.40;56.20
30304;DHT22;17112;48.636;10.152;2023-05-10T10:59:02;19.30;56.30
30304;DHT22;17112;48.636;10.152;2023-05-10T11:01:33;19.20;56.40
30304;DHT22;17112;48.636;10.152;2023-05-10T11:06:32;18.90;56.90
30304;DHT22;17112;48.636;10.152;2023-05-10T11:08:59;18.80;56.80
30304;DHT22;17112;48.636;10.152;2023-05-10T11:11:25;18.70;57.00
30304;DHT22;17112;48.636;10.152;2023-05-10T11:13:51;18.50;57.40
30304;DHT22;17112;48.636;10.152;2023-05-10T11:19:09;18.30;57.80
30304;DHT22;17112;48.636;10.152;2023-05-10T11:24:21;18.10;58.40
30304;DHT22;17112;48.636;10.152;2023-05-10T11:26:50;18.10;58.70
30304;DHT22;17112;48.636;10.152;2023-05-10T11:29:17;17.90;58.70
30304;DHT22;17112;48.636;10.152;2023-05-10T11:31:44;17.90;59.00
30304;DHT22;17112;48.636;10.152;2023-05-10T11:34:11;17.90;59.30
30304;DHT22;17112;48.636;10.152;2023-05-10T11:36:37;17.90;59.70
30304;DHT22;17112;48.636;10.152;2023-05-10T11:39:03;17.90;59.90
30304;DHT22;17112;48.636;10.152;2023-05-10T11:41:30;17.90;60.30
30304;DHT22;17112;48.636;10.152;2023-05-10T11:43:57;18.10;60.30
30304;DHT22;17112;48.636;10.152;2023-05-10T11:46:26;18.10;60.20
30304;DHT22;17112;48.636;10.152;2023-05-10T11:48:57;18.20;59.80
30304;DHT22;17112;48.636;10.152;2023-05-10T11:51:24;18.20;59.60
30304;DHT22;17112;48.636;10.152;2023-05-10T11:53:53;18.30;59.70
30304;DHT22;17112;48.636;10.152;2023-05-10T11:56:19;18.30;59.50
30304;DHT22;17112;48.636;10.152;2023-05-10T11:58:54;18.30;59.50
30304;DHT22;17112;48.636;10.152;2023-05-10T12:01:21;18.40;59.30
30304;DHT22;17112;48.636;10.152;2023-05-10T12:03:49;18.50;59.30
30304;DHT22;17112;48.636;10.152;2023-05-10T12:06:14;18.50;59.40
30304;DHT22;17112;48.636;10.152;2023-05-10T12:08:45;18.50;59.20
30304;DHT22;17112;48.636;10.152;2023-05-10T12:11:12;18.50;59.30
30304;DHT22;17112;48.636;10.152;2023-05-10T12:13:42;18.40;59.30
30304;DHT22;17112;48.636;10.152;2023-05-10T12:16:23;18.50;59.20
30304;DHT22;17112;48.636;10.152;2023-05-10T12:18:50;18.50;59.80
30304;DHT22;17112;48.636;10.152;2023-05-10T12:21:20;18.50;59.30
30304;DHT22;17112;48.636;10.152;2023-05-10T12:23:46;18.50;59.10
30304;DHT22;17112;48.636;10.152;2023-05-10T12:26:13;18.50;58.40
30304;DHT22;17112;48.636;10.152;2023-05-10T12:28:39;18.50;57.70
30304;DHT22;17112;48.636;10.152;2023-05-10T12:31:05;18.50;57.70
30304;DHT22;17112;48.636;10.152;2023-05-10T12:33:42;18.50;57.80
30304;DHT22;17112;48.636;10.152;2023-05-10T12:36:09;18.40;57.80
30304;DHT22;17112;48.636;10.152;2023-05-10T12:38:37;18.40;57.90
30304;DHT22;17112;48.636;10.152;2023-05-10T12:41:11;18.40;57.70
30304;DHT22;17112;48.636;10.152;2023-05-10T12:43:37;18.40;57.40
30304;DHT22;17112;48.636;10.152;2023-05-10T12:46:16;18.40;57.90
30304;DHT22;17112;48.636;10.152;2023-05-10T12:48:44;18.30;57.90
30304;DHT22;17112;48.636;10.152;2023-05-10T12:51:11;18.30;57.90
30304;DHT22;17112;48.636;10.152;2023-05-10T12:53:41;18.30;58.00
30304;DHT22;17112;48.636;10.152;2023-05-10T12:56:07;18.30;57.90
30304;DHT22;17112;48.636;10.152;2023-05-10T12:58:33;18.30;58.10
30304;DHT22;17112;48.636;10.152;2023-05-10T13:00:59;18.30;58.20
30304;DHT22;17112;48.636;10.152;2023-05-10T13:03:25;18.40;58.30
30304;DHT22;17112;48.636;10.152;2023-05-10T13:05:51;18.50;58.40
30304;DHT22;17112;48.636;10.152;2023-05-10T13:08:17;18.50;58.10
30304;DHT22;17112;48.636;10.152;2023-05-10T13:10:42;18.50;58.00
30304;DHT22;17112;48.636;10.152;2023-05-10T13:13:08;18.60;57.60
30304;DHT22;17112;48.636;10.152;2023-05-10T13:15:34;18.50;56.80
30304;DHT22;17112;48.636;10.152;2023-05-10T13:17:59;18.40;56.70
30304;DHT22;17112;48.636;10.152;2023-05-10T13:20:26;18.30;56.20
30304;DHT22;17112;48.636;10.152;2023-05-10T13:22:52;18.10;56.00
30304;DHT22;17112;48.636;10.152;2023-05-10T13:25:18;17.90;56.40
30304;DHT22;17112;48.636;10.152;2023-05-10T13:27:44;17.60;56.20
30304;DHT22;17112;48.636;10.152;2023-05-10T13:30:10;17.40;56.80
30304;DHT22;17112;48.636;10.152;2023-05-10T13:32:37;17.20;57.30
30304;DHT22;17112;48.636;10.152;2023-05-10T13:35:03;17.00;58.10
30304;DHT22;17112;48.636;10.152;2023-05-10T13:37:30;16.80;58.70
30304;DHT22;17112;48.636;10.152;2023-05-10T13:39:56;16.70;59.40
30304;DHT22;17112;48.636;10.152;2023-05-10T13:42:22;16.50;59.80
30304;DHT22;17112;48.636;10.152;2023-05-10T13:44:52;16.40;60.30
30304;DHT22;17112;48.636;10.152;2023-05-10T13:47:18;16.30;60.50
30304;DHT22;17112;48.636;10.152;2023-05-10T13:49:44;16.10;60.50
30304;DHT22;17112;48.636;10.152;2023-05-10T13:52:11;16.00;60.70
30304;DHT22;17112;48.636;10.152;2023-05-10T13:54:37;15.90;61.10
30304;DHT22;17112;48.636;10.152;2023-05-10T13:57:03;15.80;61.30
30304;DHT22;17112;48.636;10.152;2023-05-10T13:59:30;15.70;61.60
30304;DHT22;17112;48.636;10.152;2023-05-10T14:01:59;15.70;62.10
30304;DHT22;17112;48.636;10.152;2023-05-10T14:04:24;15.60;62.70
30304;DHT22;17112;48.636;10.152;2023-05-10T14:06:50;15.60;63.30
30304;DHT22;17112;48.636;10.152;2023-05-10T14:09:16;15.70;63.20
30304;DHT22;17112;48.636;10.152;2023-05-10T14:11:42;15.60;63.60
30304;DHT22;17112;48.636;10.152;2023-05-10T14:14:10;15.60;63.80
30304;DHT22;17112;48.636;10.152;2023-05-10T14:16:36;15.70;64.10
30304;DHT22;17112;48.636;10.152;2023-05-10T14:19:02;15.70;64.30
30304;DHT22;17112;48.636;10.152;2023-05-10T14:21:28;15.80;64.50
30304;DHT22;17112;48.636;10.152;2023-05-10T14:23:55;15.80;64.30
30304;DHT22;17112;48.636;10.152;2023-05-10T14:26:21;15.90;63.90
30304;DHT22;17112;48.636;10.152;2023-05-10T14:28:47;15.90;63.60
30304;DHT22;17112;48.636;10.152;2023-05-10T14:31:13;15.90;63.40
30304;DHT22;17112;48.636;10.152;2023-05-10T14:33:39;15.90;63.60
30304;DHT22;17112;48.636;10.152;2023-05-10T14:36:06;15.90;64.60
30304;DHT22;17112;48.636;10.152;2023-05-10T14:38:32;16.00;64.90
30304;DHT22;17112;48.636;10.152;2023-05-10T14:40:58;16.00;64.70
30304;DHT22;17112;48.636;10.152;2023-05-10T14:43:23;16.10;64.60
30304;DHT22;17112;48.636;10.152;2023-05-10T14:45:49;16.10;64.30
30304;DHT22;17112;48.636;10.152;2023-05-10T14:48:15;16.10;64.20
30304;DHT22;17112;48.636;10.152;2023-05-10T14:50:43;16.20;64.30
30304;DHT22;17112;48.636;10.152;2023-05-10T14:53:09;16.20;65.00
30304;DHT22;17112;48.636;10.152;2023-05-10T14:55:34;16.20;65.20
30304;DHT22;17112;48.636;10.152;2023-05-10T14:58:01;16.30;65.30
30304;DHT22;17112;48.636;10.152;2023-05-10T15:00:28;16.30;64.70
30304;DHT22;17112;48.636;10.152;2023-05-10T15:02:54;16.40;65.00
30304;DHT22;17112;48.636;10.152;2023-05-10T15:05:19;16.50;65.40
30304;DHT22;17112;48.636;10.152;2023-05-10T15:07:45;16.50;65.40
30304;DHT22;17112;48.636;10.152;2023-05-10T15:10:11;16.60;65.50
30304;DHT22;17112;48.636;10.152;2023-05-10T15:12:37;16.70;65.50
30304;DHT22;17112;48.636;10.152;2023-05-10T15:15:04;16.70;65.50
30304;DHT22;17112;48.636;10.152;2023-05-10T15:17:30;16.80;65.20
30304;DHT22;17112;48.636;10.152;2023-05-10T15:19:56;16.80;65.00
30304;DHT22;17112;48.636;10.152;2023-05-10T15:22:21;16.90;65.30
30304;DHT22;17112;48.636;10.152;2023-05-10T15:24:47;16.90;64.90
30304;DHT22;17112;48.636;10.152;2023-05-10T15:27:13;17.00;64.90
30304;DHT22;17112;48.636;10.152;2023-05-10T15:29:39;17.00;65.10
30304;DHT22;17112;48.636;10.152;2023-05-10T15:32:04;17.10;65.10
30304;DHT22;17112;48.636;10.152;2023-05-10T15:34:30;17.10;64.90
30304;DHT22;17112;48.636;10.152;2023-05-10T15:36:56;17.10;65.10
30304;DHT22;17112;48.636;10.152;2023-05-10T15:39:22;17.10;65.20
30304;DHT22;17112;48.636;10.152;2023-05-10T15:41:48;17.10;65.10
30304;DHT22;17112;48.636;10.152;2023-05-10T15:44:14;17.20;65.10
30304;DHT22;17112;48.636;10.152;2023-05-10T15:46:40;17.20;65.40
30304;DHT22;17112;48.636;10.152;2023-05-10T15:49:05;17.20;65.20
30304;DHT22;17112;48.636;10.152;2023-05-10T15:51:32;17.20;65.00